sensor_id;sensor_type;location;lat;lon;timestamp;pressure;altitude;pressure_sealevel;temperature;humidity
44441;BME280;30146;52.268;20.944;2022-08-01T00:02:00;99967.73;;;16.82;74.04
44441;BME280;30146;52.268;20.944;2022-08-01T00:04:29;99963.44;;;16.81;74.07
44441;BME280;30146;52.268;20.944;2022-08-01T00:06:58;99966.23;;;16.80;74.03
44441;BME280;30146;52.268;20.944;2022-08-01T00:09:27;99967.30;;;16.80;74.13
44441;BME280;30146;52.268;20.944;2022-08-01T00:11:56;99961.75;;;16.80;74.14
44441;BME280;30146;52.268;20.944;2022-08-01T00:14:27;99960.14;;;16.81;74.19
44441;BME280;30146;52.268;20.944;2022-08-01T00:17:00;99958.22;;;16.82;74.22
44441;BME280;30146;52.268;20.944;2022-08-01T00:19:34;99956.14;;;16.83;74.23
44441;BME280;30146;52.268;20.944;2022-08-01T00:22:03;99954.75;;;16.83;74.07
44441;BME280;30146;52.268;20.944;2022-08-01T00:24:32;99949.73;;;16.83;74.13
44441;BME280;30146;52.268;20.944;2022-08-01T00:27:00;99947.34;;;16.82;74.14
44441;BME280;30146;52.268;20.944;2022-08-01T00:29:29;99947.92;;;16.80;74.09
44441;BME280;30146;52.268;20.944;2022-08-01T00:32:18;99942.11;;;16.79;74.10
44441;BME280;30146;52.268;20.944;2022-08-01T00:34:46;99943.33;;;16.79;74.24
44441;BME280;30146;52.268;20.944;2022-08-01T00:37:19;99942.84;;;16.78;74.15
44441;BME280;30146;52.268;20.944;2022-08-01T00:39:47;99936.68;;;16.77;74.07
44441;BME280;30146;52.268;20.944;2022-08-01T00:42:16;99940.02;;;16.75;73.98
44441;BME280;30146;52.268;20.944;2022-08-01T00:44:46;99938.59;;;16.72;73.92
44441;BME280;30146;52.268;20.944;2022-08-01T00:47:14;99941.77;;;16.70;74.02
44441;BME280;30146;52.268;20.944;2022-08-01T00:49:43;99939.94;;;16.69;74.04
44441;BME280;30146;52.268;20.944;2022-08-01T00:52:11;99939.89;;;16.66;73.98
44441;BME280;30146;52.268;20.944;2022-08-01T00:54:40;99939.57;;;16.65;74.07
44441;BME280;30146;52.268;20.944;2022-08-01T00:57:09;99938.59;;;16.64;74.00
44441;BME280;30146;52.268;20.944;2022-08-01T00:59:39;99939.31;;;16.63;74.10
44441;BME280;30146;52.268;20.944;2022-08-01T01:02:08;99942.11;;;16.62;74.12
44441;BME280;30146;52.268;20.944;2022-08-01T01:04:43;99943.70;;;16.61;74.14
44441;BME280;30146;52.268;20.944;2022-08-01T01:07:19;99949.27;;;16.61;74.13
44441;BME280;30146;52.268;20.944;2022-08-01T01:09:54;99948.14;;;16.58;74.09
44441;BME280;30146;52.268;20.944;2022-08-01T01:12:29;99949.95;;;16.56;74.00
44441;BME280;30146;52.268;20.944;2022-08-01T01:15:08;99950.91;;;16.53;74.08
44441;BME280;30146;52.268;20.944;2022-08-01T01:17:40;99952.38;;;16.52;73.99
44441;BME280;30146;52.268;20.944;2022-08-01T01:20:22;99946.23;;;16.50;73.99
44441;BME280;30146;52.268;20.944;2022-08-01T01:26:04;99941.14;;;16.48;73.95
44441;BME280;30146;52.268;20.944;2022-08-01T01:28:57;99943.79;;;16.47;74.10
44441;BME280;30146;52.268;20.944;2022-08-01T01:31:30;99942.77;;;16.46;74.11
44441;BME280;30146;52.268;20.944;2022-08-01T01:34:03;99942.13;;;16.45;74.18
44441;BME280;30146;52.268;20.944;2022-08-01T01:36:33;99946.91;;;16.42;73.97
44441;BME280;30146;52.268;20.944;2022-08-01T01:39:02;99949.70;;;16.41;74.14
44441;BME280;30146;52.268;20.944;2022-08-01T01:41:31;99947.04;;;16.39;74.03
44441;BME280;30146;52.268;20.944;2022-08-01T01:44:01;99946.05;;;16.37;74.02
44441;BME280;30146;52.268;20.944;2022-08-01T01:46:30;99945.54;;;16.37;74.09
44441;BME280;30146;52.268;20.944;2022-08-01T01:49:00;99945.40;;;16.36;73.99
44441;BME280;30146;52.268;20.944;2022-08-01T01:51:30;99948.11;;;16.33;74.00
44441;BME280;30146;52.268;20.944;2022-08-01T01:54:00;99951.08;;;16.32;74.10
44441;BME280;30146;52.268;20.944;2022-08-01T01:56:32;99950.24;;;16.31;74.07
44441;BME280;30146;52.268;20.944;2022-08-01T01:59:02;99950.15;;;16.29;74.14
44441;BME280;30146;52.268;20.944;2022-08-01T02:01:33;99948.45;;;16.29;73.98
44441;BME280;30146;52.268;20.944;2022-08-01T02:04:24;99945.10;;;16.26;73.99
44441;BME280;30146;52.268;20.944;2022-08-01T02:06:56;99943.83;;;16.24;73.99
44441;BME280;30146;52.268;20.944;2022-08-01T02:09:27;99944.81;;;16.20;73.97
44441;BME280;30146;52.268;20.944;2022-08-01T02:11:58;99943.34;;;16.18;73.88
44441;BME280;30146;52.268;20.944;2022-08-01T02:14:36;99941.88;;;16.16;73.97
44441;BME280;30146;52.268;20.944;2022-08-01T02:17:05;99939.89;;;16.14;74.08
44441;BME280;30146;52.268;20.944;2022-08-01T02:19:34;99938.27;;;16.11;73.86
44441;BME280;30146;52.268;20.944;2022-08-01T02:22:09;99933.66;;;16.10;73.86
44441;BME280;30146;52.268;20.944;2022-08-01T02:24:43;99934.10;;;16.08;73.89
44441;BME280;30146;52.268;20.944;2022-08-01T02:27:17;99933.53;;;16.05;73.85
44441;BME280;30146;52.268;20.944;2022-08-01T02:29:53;99938.43;;;16.03;73.98
44441;BME280;30146;52.268;20.944;2022-08-01T02:32:32;99938.16;;;16.01;73.91
44441;BME280;30146;52.268;20.944;2022-08-01T02:35:10;99939.64;;;15.98;73.89
44441;BME280;30146;52.268;20.944;2022-08-01T02:37:39;99941.32;;;15.94;73.76
44441;BME280;30146;52.268;20.944;2022-08-01T02:40:15;99939.55;;;15.91;73.81
44441;BME280;30146;52.268;20.944;2022-08-01T02:42:49;99943.64;;;15.88;73.87
44441;BME280;30146;52.268;20.944;2022-08-01T02:45:24;99943.95;;;15.84;73.62
44441;BME280;30146;52.268;20.944;2022-08-01T02:47:55;99942.66;;;15.77;73.59
44441;BME280;30146;52.268;20.944;2022-08-01T02:50:27;99942.80;;;15.73;73.65
44441;BME280;30146;52.268;20.944;2022-08-01T02:52:57;99945.71;;;15.68;73.60
44441;BME280;30146;52.268;20.944;2022-08-01T02:55:27;99946.88;;;15.65;73.57
44441;BME280;30146;52.268;20.944;2022-08-01T02:57:58;99949.82;;;15.60;73.47
44441;BME280;30146;52.268;20.944;2022-08-01T03:00:29;99951.55;;;15.55;73.40
44441;BME280;30146;52.268;20.944;2022-08-01T03:03:00;99951.13;;;15.52;73.53
44441;BME280;30146;52.268;20.944;2022-08-01T03:05:30;99952.47;;;15.49;73.75
44441;BME280;30146;52.268;20.944;2022-08-01T03:08:01;99953.08;;;15.46;73.74
44441;BME280;30146;52.268;20.944;2022-08-01T03:10:32;99956.19;;;15.45;73.87
44441;BME280;30146;52.268;20.944;2022-08-01T03:13:01;99960.16;;;15.45;73.92
44441;BME280;30146;52.268;20.944;2022-08-01T03:15:33;99963.50;;;15.43;73.96
44441;BME280;30146;52.268;20.944;2022-08-01T03:18:06;99956.70;;;15.41;73.90
44441;BME280;30146;52.268;20.944;2022-08-01T03:20:35;99962.27;;;15.39;73.80
44441;BME280;30146;52.268;20.944;2022-08-01T03:23:07;99959.63;;;15.36;73.80
44441;BME280;30146;52.268;20.944;2022-08-01T03:25:39;99956.64;;;15.33;73.73
44441;BME280;30146;52.268;20.944;2022-08-01T03:28:11;99959.02;;;15.29;73.74
44441;BME280;30146;52.268;20.944;2022-08-01T03:30:41;99958.95;;;15.26;73.76
44441;BME280;30146;52.268;20.944;2022-08-01T03:33:10;99958.69;;;15.24;73.87
44441;BME280;30146;52.268;20.944;2022-08-01T03:35:47;99964.23;;;15.22;73.98
44441;BME280;30146;52.268;20.944;2022-08-01T03:38:19;99965.97;;;15.22;74.00
44441;BME280;30146;52.268;20.944;2022-08-01T03:40:53;99967.11;;;15.24;74.11
44441;BME280;30146;52.268;20.944;2022-08-01T03:43:28;99970.92;;;15.23;74.04
44441;BME280;30146;52.268;20.944;2022-08-01T03:46:03;99973.10;;;15.25;74.10
44441;BME280;30146;52.268;20.944;2022-08-01T03:48:39;99973.54;;;15.27;74.08
44441;BME280;30146;52.268;20.944;2022-08-01T03:51:09;99973.85;;;15.28;74.08
44441;BME280;30146;52.268;20.944;2022-08-01T03:53:39;99974.15;;;15.29;74.21
44441;BME280;30146;52.268;20.944;2022-08-01T03:56:10;99978.58;;;15.31;74.21
44441;BME280;30146;52.268;20.944;2022-08-01T03:58:42;99980.38;;;15.33;74.28
44441;BME280;30146;52.268;20.944;2022-08-01T04:01:17;99981.46;;;15.37;74.41
44441;BME280;30146;52.268;20.944;2022-08-01T04:03:46;99985.13;;;15.41;74.38
44441;BME280;30146;52.268;20.944;2022-08-01T04:06:18;99985.69;;;15.44;74.48
44441;BME280;30146;52.268;20.944;2022-08-01T04:08:48;99988.02;;;15.47;74.32
44441;BME280;30146;52.268;20.944;2022-08-01T04:11:25;99990.17;;;15.49;74.39
44441;BME280;30146;52.268;20.944;2022-08-01T04:13:55;99990.52;;;15.49;74.20
44441;BME280;30146;52.268;20.944;2022-08-01T04:16:26;99992.55;;;15.50;74.10
44441;BME280;30146;52.268;20.944;2022-08-01T04:18:54;99993.83;;;15.53;74.32
44441;BME280;30146;52.268;20.944;2022-08-01T04:21:26;99998.81;;;15.58;74.55
44441;BME280;30146;52.268;20.944;2022-08-01T04:23:59;99999.37;;;15.62;74.55
44441;BME280;30146;52.268;20.944;2022-08-01T04:26:32;99993.41;;;15.65;74.42
44441;BME280;30146;52.268;20.944;2022-08-01T04:29:04;99993.85;;;15.67;74.38
44441;BME280;30146;52.268;20.944;2022-08-01T04:31:33;99995.63;;;15.70;74.45
44441;BME280;30146;52.268;20.944;2022-08-01T04:34:05;99994.67;;;15.72;74.57
44441;BME280;30146;52.268;20.944;2022-08-01T04:36:36;100001.25;;;15.77;74.62
44441;BME280;30146;52.268;20.944;2022-08-01T04:39:05;99999.11;;;15.84;74.70
44441;BME280;30146;52.268;20.944;2022-08-01T04:41:34;100004.79;;;15.89;74.73
44441;BME280;30146;52.268;20.944;2022-08-01T04:44:05;100004.30;;;15.93;74.71
44441;BME280;30146;52.268;20.944;2022-08-01T04:46:34;100005.00;;;15.97;74.69
44441;BME280;30146;52.268;20.944;2022-08-01T04:49:07;100007.40;;;16.02;74.68
44441;BME280;30146;52.268;20.944;2022-08-01T04:51:37;100006.38;;;16.06;74.62
44441;BME280;30146;52.268;20.944;2022-08-01T04:54:18;100006.88;;;16.11;74.51
44441;BME280;30146;52.268;20.944;2022-08-01T04:56:49;100005.60;;;16.18;74.71
44441;BME280;30146;52.268;20.944;2022-08-01T04:59:19;100007.44;;;16.25;74.73
44441;BME280;30146;52.268;20.944;2022-08-01T05:02:07;100006.56;;;16.29;74.45
44441;BME280;30146;52.268;20.944;2022-08-01T05:04:36;100006.52;;;16.34;74.41
44441;BME280;30146;52.268;20.944;2022-08-01T05:07:05;100008.89;;;16.41;74.40
44441;BME280;30146;52.268;20.944;2022-08-01T05:09:34;100010.89;;;16.47;74.34
44441;BME280;30146;52.268;20.944;2022-08-01T05:12:06;100016.00;;;16.52;74.09
44441;BME280;30146;52.268;20.944;2022-08-01T05:14:35;100018.70;;;16.54;73.82
44441;BME280;30146;52.268;20.944;2022-08-01T05:17:05;100019.98;;;16.57;73.80
44441;BME280;30146;52.268;20.944;2022-08-01T05:19:34;100022.46;;;16.59;73.68
44441;BME280;30146;52.268;20.944;2022-08-01T05:22:04;100023.60;;;16.61;73.74
44441;BME280;30146;52.268;20.944;2022-08-01T05:24:35;100031.27;;;16.81;74.20
44441;BME280;30146;52.268;20.944;2022-08-01T05:27:07;100026.80;;;17.23;74.84
44441;BME280;30146;52.268;20.944;2022-08-01T05:29:38;100023.35;;;17.68;75.06
44441;BME280;30146;52.268;20.944;2022-08-01T05:32:12;100023.57;;;18.21;75.01
44441;BME280;30146;52.268;20.944;2022-08-01T05:34:40;100021.51;;;18.76;74.85
44441;BME280;30146;52.268;20.944;2022-08-01T05:37:09;100025.20;;;19.25;74.25
44441;BME280;30146;52.268;20.944;2022-08-01T05:39:37;100029.10;;;19.74;73.64
44441;BME280;30146;52.268;20.944;2022-08-01T05:42:06;100032.35;;;20.27;73.40
44441;BME280;30146;52.268;20.944;2022-08-01T05:44:35;100030.73;;;20.84;72.62
44441;BME280;30146;52.268;20.944;2022-08-01T05:47:04;100032.45;;;21.36;71.72
44441;BME280;30146;52.268;20.944;2022-08-01T05:49:32;100030.70;;;21.91;70.89
44441;BME280;30146;52.268;20.944;2022-08-01T05:52:01;100035.71;;;22.48;70.07
44441;BME280;30146;52.268;20.944;2022-08-01T05:54:30;100030.77;;;23.03;69.16
44441;BME280;30146;52.268;20.944;2022-08-01T05:56:59;100032.13;;;23.55;68.01
44441;BME280;30146;52.268;20.944;2022-08-01T05:59:29;100032.48;;;24.09;67.17
44441;BME280;30146;52.268;20.944;2022-08-01T06:01:58;100033.23;;;24.62;66.34
44441;BME280;30146;52.268;20.944;2022-08-01T06:04:26;100030.08;;;25.14;65.23
44441;BME280;30146;52.268;20.944;2022-08-01T06:06:55;100032.95;;;25.64;64.51
44441;BME280;30146;52.268;20.944;2022-08-01T06:09:23;100033.65;;;26.14;63.29
44441;BME280;30146;52.268;20.944;2022-08-01T06:11:52;100036.60;;;26.60;62.29
44441;BME280;30146;52.268;20.944;2022-08-01T06:14:20;100037.10;;;27.03;61.16
44441;BME280;30146;52.268;20.944;2022-08-01T06:16:48;100031.41;;;27.46;60.67
44441;BME280;30146;52.268;20.944;2022-08-01T06:19:18;100030.35;;;27.93;60.12
44441;BME280;30146;52.268;20.944;2022-08-01T06:21:46;100028.98;;;28.41;59.39
44441;BME280;30146;52.268;20.944;2022-08-01T06:24:15;100030.11;;;28.87;58.72
44441;BME280;30146;52.268;20.944;2022-08-01T06:26:43;100034.36;;;29.31;57.88
44441;BME280;30146;52.268;20.944;2022-08-01T06:29:12;100032.33;;;29.72;57.06
44441;BME280;30146;52.268;20.944;2022-08-01T06:31:41;100031.93;;;30.07;55.89
44441;BME280;30146;52.268;20.944;2022-08-01T06:34:09;100034.00;;;30.37;54.83
44441;BME280;30146;52.268;20.944;2022-08-01T06:36:38;100038.70;;;30.68;54.30
44441;BME280;30146;52.268;20.944;2022-08-01T06:39:07;100043.06;;;30.99;53.40
44441;BME280;30146;52.268;20.944;2022-08-01T06:41:35;100044.09;;;31.22;52.20
44441;BME280;30146;52.268;20.944;2022-08-01T06:44:05;100043.49;;;31.48;51.88
44441;BME280;30146;52.268;20.944;2022-08-01T06:46:33;100042.35;;;31.75;51.20
44441;BME280;30146;52.268;20.944;2022-08-01T06:49:03;100040.45;;;31.98;50.29
44441;BME280;30146;52.268;20.944;2022-08-01T06:51:32;100038.42;;;32.14;49.24
44441;BME280;30146;52.268;20.944;2022-08-01T06:54:01;100040.05;;;32.32;48.95
44441;BME280;30146;52.268;20.944;2022-08-01T06:56:29;100039.06;;;32.53;48.55
44441;BME280;30146;52.268;20.944;2022-08-01T06:58:58;100041.38;;;32.76;48.03
44441;BME280;30146;52.268;20.944;2022-08-01T07:01:29;100040.08;;;32.96;47.72
44441;BME280;30146;52.268;20.944;2022-08-01T07:04:03;100037.80;;;33.09;46.80
44441;BME280;30146;52.268;20.944;2022-08-01T07:06:33;100034.39;;;33.20;46.46
44441;BME280;30146;52.268;20.944;2022-08-01T07:09:02;100031.07;;;33.24;45.98
44441;BME280;30146;52.268;20.944;2022-08-01T07:11:39;100033.76;;;33.19;45.47
44441;BME280;30146;52.268;20.944;2022-08-01T07:14:08;100036.02;;;33.16;45.73
44441;BME280;30146;52.268;20.944;2022-08-01T07:16:36;100040.40;;;33.11;45.72
44441;BME280;30146;52.268;20.944;2022-08-01T07:19:05;100035.47;;;33.08;45.93
44441;BME280;30146;52.268;20.944;2022-08-01T07:21:34;100038.56;;;33.02;45.69
44441;BME280;30146;52.268;20.944;2022-08-01T07:24:11;100036.09;;;32.92;45.16
44441;BME280;30146;52.268;20.944;2022-08-01T07:26:44;100036.03;;;32.81;45.28
44441;BME280;30146;52.268;20.944;2022-08-01T07:29:23;100035.70;;;32.74;45.32
44441;BME280;30146;52.268;20.944;2022-08-01T07:31:52;100029.27;;;32.69;45.19
44441;BME280;30146;52.268;20.944;2022-08-01T07:34:22;100028.40;;;32.59;44.55
44441;BME280;30146;52.268;20.944;2022-08-01T07:36:52;100024.85;;;32.44;43.98
44441;BME280;30146;52.268;20.944;2022-08-01T07:39:21;100022.67;;;32.28;44.04
44441;BME280;30146;52.268;20.944;2022-08-01T07:41:50;100021.25;;;32.16;44.20
44441;BME280;30146;52.268;20.944;2022-08-01T07:44:38;100023.33;;;32.08;44.36
44441;BME280;30146;52.268;20.944;2022-08-01T07:47:07;100027.76;;;32.01;44.00
44441;BME280;30146;52.268;20.944;2022-08-01T07:49:36;100026.29;;;31.89;43.89
44441;BME280;30146;52.268;20.944;2022-08-01T07:52:09;100023.31;;;31.82;44.00
44441;BME280;30146;52.268;20.944;2022-08-01T07:54:38;100024.21;;;31.79;44.20
44441;BME280;30146;52.268;20.944;2022-08-01T07:57:07;100021.67;;;31.78;44.43
44441;BME280;30146;52.268;20.944;2022-08-01T07:59:36;100017.27;;;31.78;44.25
44441;BME280;30146;52.268;20.944;2022-08-01T08:02:05;100018.88;;;31.78;43.94
44441;BME280;30146;52.268;20.944;2022-08-01T08:04:34;100021.23;;;31.75;44.30
44441;BME280;30146;52.268;20.944;2022-08-01T08:07:03;100023.90;;;31.72;43.92
44441;BME280;30146;52.268;20.944;2022-08-01T08:09:33;100020.31;;;31.67;43.46
44441;BME280;30146;52.268;20.944;2022-08-01T08:12:06;100025.84;;;31.60;43.50
44441;BME280;30146;52.268;20.944;2022-08-01T08:14:36;100024.25;;;31.48;42.98
44441;BME280;30146;52.268;20.944;2022-08-01T08:17:05;100026.77;;;31.38;43.10
44441;BME280;30146;52.268;20.944;2022-08-01T08:19:34;100028.23;;;31.29;43.20
44441;BME280;30146;52.268;20.944;2022-08-01T08:22:08;100027.10;;;31.21;42.88
44441;BME280;30146;52.268;20.944;2022-08-01T08:24:38;100033.05;;;31.06;42.54
44441;BME280;30146;52.268;20.944;2022-08-01T08:27:14;100030.98;;;30.91;42.55
44441;BME280;30146;52.268;20.944;2022-08-01T08:29:43;100028.94;;;30.80;42.80
44441;BME280;30146;52.268;20.944;2022-08-01T08:32:12;100030.63;;;30.72;42.81
44441;BME280;30146;52.268;20.944;2022-08-01T08:34:41;100032.08;;;30.64;43.05
44441;BME280;30146;52.268;20.944;2022-08-01T08:37:10;100032.80;;;30.57;43.14
44441;BME280;30146;52.268;20.944;2022-08-01T08:39:39;100032.67;;;30.46;42.51
44441;BME280;30146;52.268;20.944;2022-08-01T08:42:10;100038.27;;;30.33;42.79
44441;BME280;30146;52.268;20.944;2022-08-01T08:44:41;100041.63;;;30.25;43.06
44441;BME280;30146;52.268;20.944;2022-08-01T08:47:13;100044.20;;;30.16;42.76
44441;BME280;30146;52.268;20.944;2022-08-01T08:49:49;100045.45;;;30.04;42.80
44441;BME280;30146;52.268;20.944;2022-08-01T08:52:19;100043.34;;;29.95;43.24
44441;BME280;30146;52.268;20.944;2022-08-01T08:54:50;100045.07;;;29.92;43.61
44441;BME280;30146;52.268;20.944;2022-08-01T08:57:21;100046.75;;;29.92;43.76
44441;BME280;30146;52.268;20.944;2022-08-01T08:59:50;100045.82;;;29.91;43.52
44441;BME280;30146;52.268;20.944;2022-08-01T09:02:20;100045.56;;;29.92;43.35
44441;BME280;30146;52.268;20.944;2022-08-01T09:04:50;100052.97;;;29.90;43.05
44441;BME280;30146;52.268;20.944;2022-08-01T09:07:19;100052.43;;;29.88;42.70
44441;BME280;30146;52.268;20.944;2022-08-01T09:09:47;100051.86;;;29.85;42.68
44441;BME280;30146;52.268;20.944;2022-08-01T09:12:18;100057.40;;;29.83;42.71
44441;BME280;30146;52.268;20.944;2022-08-01T09:14:50;100057.58;;;29.81;42.91
44441;BME280;30146;52.268;20.944;2022-08-01T09:17:21;100056.64;;;29.81;43.08
44441;BME280;30146;52.268;20.944;2022-08-01T09:19:51;100058.52;;;29.82;43.14
44441;BME280;30146;52.268;20.944;2022-08-01T09:22:23;100058.23;;;29.83;42.84
44441;BME280;30146;52.268;20.944;2022-08-01T09:25:01;100056.61;;;29.82;42.42
44441;BME280;30146;52.268;20.944;2022-08-01T09:27:30;100056.95;;;29.78;42.45
44441;BME280;30146;52.268;20.944;2022-08-01T09:30:09;100063.86;;;29.76;42.55
44441;BME280;30146;52.268;20.944;2022-08-01T09:32:54;100068.27;;;29.71;42.43
44441;BME280;30146;52.268;20.944;2022-08-01T09:35:28;100071.30;;;29.62;42.21
44441;BME280;30146;52.268;20.944;2022-08-01T09:38:18;100066.46;;;29.55;42.50
44441;BME280;30146;52.268;20.944;2022-08-01T09:40:49;100063.87;;;29.52;42.22
44441;BME280;30146;52.268;20.944;2022-08-01T09:43:20;100064.49;;;29.44;42.04
44441;BME280;30146;52.268;20.944;2022-08-01T09:45:51;100065.21;;;29.36;42.46
44441;BME280;30146;52.268;20.944;2022-08-01T09:48:22;100063.22;;;29.31;42.40
44441;BME280;30146;52.268;20.944;2022-08-01T09:50:58;100062.09;;;29.30;42.64
44441;BME280;30146;52.268;20.944;2022-08-01T09:53:46;100061.27;;;29.29;42.25
44441;BME280;30146;52.268;20.944;2022-08-01T09:56:24;100060.22;;;29.29;42.74
44441;BME280;30146;52.268;20.944;2022-08-01T09:58:55;100062.21;;;29.33;42.65
44441;BME280;30146;52.268;20.944;2022-08-01T10:01:41;100062.75;;;29.33;43.17
44441;BME280;30146;52.268;20.944;2022-08-01T10:04:12;100061.29;;;29.26;43.13
44441;BME280;30146;52.268;20.944;2022-08-01T10:06:44;100060.36;;;29.26;42.88
44441;BME280;30146;52.268;20.944;2022-08-01T10:09:14;100064.88;;;29.27;42.52
44441;BME280;30146;52.268;20.944;2022-08-01T10:11:43;100062.88;;;29.28;42.61
44441;BME280;30146;52.268;20.944;2022-08-01T10:14:13;100065.62;;;29.30;42.61
44441;BME280;30146;52.268;20.944;2022-08-01T10:16:46;100061.66;;;29.33;42.70
44441;BME280;30146;52.268;20.944;2022-08-01T10:19:24;100060.35;;;29.38;42.58
44441;BME280;30146;52.268;20.944;2022-08-01T10:21:57;100061.45;;;29.39;42.35
44441;BME280;30146;52.268;20.944;2022-08-01T10:24:29;100055.09;;;29.37;41.97
44441;BME280;30146;52.268;20.944;2022-08-01T10:27:04;100054.30;;;29.32;42.09
44441;BME280;30146;52.268;20.944;2022-08-01T10:29:47;100053.81;;;29.26;42.06
44441;BME280;30146;52.268;20.944;2022-08-01T10:32:36;100053.19;;;29.18;42.03
44441;BME280;30146;52.268;20.944;2022-08-01T10:35:08;100051.90;;;29.12;42.05
44441;BME280;30146;52.268;20.944;2022-08-01T10:37:44;100046.35;;;29.04;41.77
44441;BME280;30146;52.268;20.944;2022-08-01T10:40:20;100048.68;;;28.97;41.72
44441;BME280;30146;52.268;20.944;2022-08-01T10:42:59;100051.36;;;28.91;41.70
44441;BME280;30146;52.268;20.944;2022-08-01T10:45:28;100051.17;;;28.84;41.51
44441;BME280;30146;52.268;20.944;2022-08-01T10:48:03;100050.63;;;28.80;42.14
44441;BME280;30146;52.268;20.944;2022-08-01T10:50:37;100055.09;;;28.74;41.98
44441;BME280;30146;52.268;20.944;2022-08-01T10:53:16;100049.10;;;28.68;42.14
44441;BME280;30146;52.268;20.944;2022-08-01T10:56:02;100045.81;;;28.57;42.30
44441;BME280;30146;52.268;20.944;2022-08-01T10:58:33;100046.56;;;28.51;42.01
44441;BME280;30146;52.268;20.944;2022-08-01T11:01:20;100043.44;;;28.44;42.33
44441;BME280;30146;52.268;20.944;2022-08-01T11:04:07;100045.11;;;28.41;42.64
44441;BME280;30146;52.268;20.944;2022-08-01T11:07:03;100048.10;;;28.41;42.70
44441;BME280;30146;52.268;20.944;2022-08-01T11:09:41;100044.90;;;28.40;42.34
44441;BME280;30146;52.268;20.944;2022-08-01T11:12:12;100037.90;;;28.33;42.03
44441;BME280;30146;52.268;20.944;2022-08-01T11:15:23;100038.38;;;28.24;41.84
44441;BME280;30146;52.268;20.944;2022-08-01T11:18:04;100038.32;;;28.17;42.07
44441;BME280;30146;52.268;20.944;2022-08-01T11:21:00;100032.17;;;28.11;41.95
44441;BME280;30146;52.268;20.944;2022-08-01T11:23:49;100034.77;;;28.07;42.28
44441;BME280;30146;52.268;20.944;2022-08-01T11:26:21;100035.55;;;28.07;42.35
44441;BME280;30146;52.268;20.944;2022-08-01T11:29:15;100033.86;;;28.06;42.42
44441;BME280;30146;52.268;20.944;2022-08-01T11:31:49;100033.17;;;28.04;42.25
44441;BME280;30146;52.268;20.944;2022-08-01T11:34:52;100033.88;;;28.00;42.19
44441;BME280;30146;52.268;20.944;2022-08-01T11:37:25;100036.92;;;27.95;42.37
44441;BME280;30146;52.268;20.944;2022-08-01T11:40:18;100034.71;;;27.90;41.99
44441;BME280;30146;52.268;20.944;2022-08-01T11:43:15;100037.12;;;27.84;42.20
44441;BME280;30146;52.268;20.944;2022-08-01T11:45:51;100038.58;;;27.81;42.31
44441;BME280;30146;52.268;20.944;2022-08-01T11:48:23;100034.91;;;27.77;42.28
44441;BME280;30146;52.268;20.944;2022-08-01T11:50:56;100039.54;;;27.72;42.51
44441;BME280;30146;52.268;20.944;2022-08-01T11:53:30;100037.17;;;27.69;42.92
44441;BME280;30146;52.268;20.944;2022-08-01T11:56:01;100033.02;;;27.64;42.43
44441;BME280;30146;52.268;20.944;2022-08-01T11:58:29;100033.46;;;27.57;42.66
44441;BME280;30146;52.268;20.944;2022-08-01T12:00:59;100035.85;;;27.52;42.99
44441;BME280;30146;52.268;20.944;2022-08-01T12:03:30;100031.85;;;27.50;43.26
44441;BME280;30146;52.268;20.944;2022-08-01T12:06:01;100036.75;;;27.45;43.02
44441;BME280;30146;52.268;20.944;2022-08-01T12:08:31;100036.20;;;27.43;43.20
44441;BME280;30146;52.268;20.944;2022-08-01T12:11:04;100039.60;;;27.41;42.86
44441;BME280;30146;52.268;20.944;2022-08-01T12:13:41;100037.20;;;27.37;42.82
44441;BME280;30146;52.268;20.944;2022-08-01T12:16:11;100037.06;;;27.33;42.85
44441;BME280;30146;52.268;20.944;2022-08-01T12:18:40;100035.73;;;27.29;43.01
44441;BME280;30146;52.268;20.944;2022-08-01T12:21:10;100030.21;;;27.24;42.94
44441;BME280;30146;52.268;20.944;2022-08-01T12:23:39;100035.22;;;27.21;42.99
44441;BME280;30146;52.268;20.944;2022-08-01T12:26:08;100032.58;;;27.20;42.99
44441;BME280;30146;52.268;20.944;2022-08-01T12:28:56;100035.81;;;27.16;43.27
44441;BME280;30146;52.268;20.944;2022-08-01T12:31:33;100034.20;;;27.13;43.30
44441;BME280;30146;52.268;20.944;2022-08-01T12:34:25;100035.38;;;27.12;43.45
44441;BME280;30146;52.268;20.944;2022-08-01T12:36:57;100034.71;;;27.09;43.46
44441;BME280;30146;52.268;20.944;2022-08-01T12:39:32;100031.38;;;27.06;43.41
44441;BME280;30146;52.268;20.944;2022-08-01T12:42:00;100033.52;;;27.04;43.35
44441;BME280;30146;52.268;20.944;2022-08-01T12:44:30;100027.64;;;26.99;43.08
44441;BME280;30146;52.268;20.944;2022-08-01T12:46:59;100026.42;;;26.94;43.62
44441;BME280;30146;52.268;20.944;2022-08-01T12:49:29;100024.94;;;26.91;43.46
44441;BME280;30146;52.268;20.944;2022-08-01T12:51:58;100027.42;;;26.89;43.62
44441;BME280;30146;52.268;20.944;2022-08-01T12:54:27;100023.18;;;26.87;43.50
44441;BME280;30146;52.268;20.944;2022-08-01T12:56:58;100025.59;;;26.85;43.74
44441;BME280;30146;52.268;20.944;2022-08-01T12:59:28;100030.11;;;26.84;43.92
44441;BME280;30146;52.268;20.944;2022-08-01T13:02:07;100029.13;;;26.81;43.79
44441;BME280;30146;52.268;20.944;2022-08-01T13:04:50;100028.13;;;26.78;43.91
44441;BME280;30146;52.268;20.944;2022-08-01T13:07:19;100024.94;;;26.74;43.48
44441;BME280;30146;52.268;20.944;2022-08-01T13:09:51;100026.06;;;26.69;43.73
44441;BME280;30146;52.268;20.944;2022-08-01T13:12:20;100018.94;;;26.64;43.80
44441;BME280;30146;52.268;20.944;2022-08-01T13:14:48;100016.45;;;26.60;43.78